sensor_id;sensor_type;location;lat;lon;timestamp;pressure;altitude;pressure_sealevel;temperature;humidity
53514;BME280;39768;54.148;12.174;2023-03-18T00:01:04;100739.94;;;13.70;46.24
53514;BME280;39768;54.148;12.174;2023-03-18T00:05:08;100753.06;;;13.44;47.39
53514;BME280;39768;54.148;12.174;2023-03-18T00:09:11;100760.53;;;13.65;47.59
53514;BME280;39768;54.148;12.174;2023-03-18T00:13:14;100766.28;;;13.50;48.45
53514;BME280;39768;54.148;12.174;2023-03-18T00:17:16;100759.59;;;13.32;49.54
53514;BME280;39768;54.148;12.174;2023-03-18T00:21:17;100760.13;;;13.07;49.53
53514;BME280;39768;54.148;12.174;2023-03-18T00:25:19;100755.47;;;13.54;48.30
53514;BME280;39768;54.148;12.174;2023-03-18T00:29:20;100756.22;;;13.59;47.43
53514;BME280;39768;54.148;12.174;2023-03-18T00:33:23;100760.44;;;13.68;48.31
53514;BME280;39768;54.148;12.174;2023-03-18T00:37:25;100740.78;;;13.01;48.58
53514;BME280;39768;54.148;12.174;2023-03-18T00:41:34;100750.09;;;13.56;47.97
53514;BME280;39768;54.148;12.174;2023-03-18T00:45:39;100746.00;;;13.76;49.88
53514;BME280;39768;54.148;12.174;2023-03-18T00:49:41;100742.47;;;13.40;50.91
53514;BME280;39768;54.148;12.174;2023-03-18T00:53:44;100733.53;;;13.06;54.40
53514;BME280;39768;54.148;12.174;2023-03-18T00:57:46;100728.72;;;12.85;55.02
53514;BME280;39768;54.148;12.174;2023-03-18T01:01:48;100727.97;;;12.78;55.49
53514;BME280;39768;54.148;12.174;2023-03-18T01:05:50;100715.81;;;12.66;57.63
53514;BME280;39768;54.148;12.174;2023-03-18T01:09:51;100726.31;;;12.74;56.93
53514;BME280;39768;54.148;12.174;2023-03-18T01:13:55;100714.66;;;13.51;54.83
53514;BME280;39768;54.148;12.174;2023-03-18T01:17:56;100716.47;;;13.15;55.69
53514;BME280;39768;54.148;12.174;2023-03-18T01:22:00;100714.25;;;13.66;53.92
53514;BME280;39768;54.148;12.174;2023-03-18T01:26:03;100701.59;;;13.74;53.15
53514;BME280;39768;54.148;12.174;2023-03-18T01:30:06;100705.59;;;13.58;53.97
53514;BME280;39768;54.148;12.174;2023-03-18T01:34:09;100700.69;;;13.75;52.73
53514;BME280;39768;54.148;12.174;2023-03-18T01:38:21;100696.94;;;13.81;52.99
53514;BME280;39768;54.148;12.174;2023-03-18T01:42:22;100702.47;;;13.74;53.87
53514;BME280;39768;54.148;12.174;2023-03-18T01:50:34;100708.91;;;13.33;59.18
53514;BME280;39768;54.148;12.174;2023-03-18T01:54:42;100710.25;;;13.14;59.88
53514;BME280;39768;54.148;12.174;2023-03-18T01:58:48;100721.03;;;13.08;61.92
53514;BME280;39768;54.148;12.174;2023-03-18T02:02:53;100720.25;;;13.04;61.68
53514;BME280;39768;54.148;12.174;2023-03-18T02:06:57;100730.63;;;13.18;62.10
53514;BME280;39768;54.148;12.174;2023-03-18T02:10:59;100749.50;;;13.06;64.69
53514;BME280;39768;54.148;12.174;2023-03-18T02:15:05;100755.88;;;13.00;64.30
53514;BME280;39768;54.148;12.174;2023-03-18T02:19:29;100753.63;;;13.21;63.02
53514;BME280;39768;54.148;12.174;2023-03-18T02:23:44;100750.38;;;13.06;65.68
53514;BME280;39768;54.148;12.174;2023-03-18T02:27:55;100758.19;;;13.17;65.73
53514;BME280;39768;54.148;12.174;2023-03-18T02:32:03;100755.56;;;13.16;64.18
53514;BME280;39768;54.148;12.174;2023-03-18T02:36:28;100750.97;;;12.42;67.51
53514;BME280;39768;54.148;12.174;2023-03-18T02:40:35;100752.63;;;12.88;68.35
53514;BME280;39768;54.148;12.174;2023-03-18T02:44:44;100762.00;;;13.05;68.42
53514;BME280;39768;54.148;12.174;2023-03-18T02:49:14;100765.06;;;13.26;66.35
53514;BME280;39768;54.148;12.174;2023-03-18T02:53:17;100763.50;;;13.17;65.92
53514;BME280;39768;54.148;12.174;2023-03-18T02:57:18;100764.09;;;13.30;65.13
53514;BME280;39768;54.148;12.174;2023-03-18T03:01:21;100758.22;;;13.14;63.68
53514;BME280;39768;54.148;12.174;2023-03-18T03:05:23;100763.50;;;13.17;65.16
53514;BME280;39768;54.148;12.174;2023-03-18T03:09:25;100772.34;;;12.79;67.41
53514;BME280;39768;54.148;12.174;2023-03-18T03:13:26;100763.31;;;12.86;68.32
53514;BME280;39768;54.148;12.174;2023-03-18T03:17:28;100759.03;;;13.19;68.84
53514;BME280;39768;54.148;12.174;2023-03-18T03:21:31;100756.06;;;12.91;71.03
53514;BME280;39768;54.148;12.174;2023-03-18T03:25:33;100748.50;;;12.75;74.94
53514;BME280;39768;54.148;12.174;2023-03-18T03:29:36;100735.00;;;12.42;79.13
53514;BME280;39768;54.148;12.174;2023-03-18T03:33:38;100741.53;;;12.27;82.19
53514;BME280;39768;54.148;12.174;2023-03-18T03:37:42;100753.28;;;12.59;84.24
53514;BME280;39768;54.148;12.174;2023-03-18T03:41:44;100751.75;;;12.87;79.62
53514;BME280;39768;54.148;12.174;2023-03-18T03:45:49;100742.50;;;12.63;85.94
53514;BME280;39768;54.148;12.174;2023-03-18T03:49:51;100743.03;;;12.79;84.05
53514;BME280;39768;54.148;12.174;2023-03-18T03:53:52;100745.28;;;12.59;83.00
53514;BME280;39768;54.148;12.174;2023-03-18T03:57:54;100746.97;;;12.21;87.25
53514;BME280;39768;54.148;12.174;2023-03-18T04:01:57;100730.00;;;11.84;91.57
53514;BME280;39768;54.148;12.174;2023-03-18T04:05:59;100736.25;;;11.80;92.23
53514;BME280;39768;54.148;12.174;2023-03-18T04:10:04;100734.53;;;11.77;96.78
53514;BME280;39768;54.148;12.174;2023-03-18T04:14:06;100724.34;;;11.51;100.00
53514;BME280;39768;54.148;12.174;2023-03-18T04:18:08;100728.53;;;12.12;94.45
53514;BME280;39768;54.148;12.174;2023-03-18T04:22:11;100734.56;;;12.62;89.09
53514;BME280;39768;54.148;12.174;2023-03-18T04:26:13;100740.03;;;12.56;89.00
53514;BME280;39768;54.148;12.174;2023-03-18T04:30:14;100738.13;;;12.19;91.50
53514;BME280;39768;54.148;12.174;2023-03-18T04:34:28;100730.53;;;12.01;88.09
53514;BME280;39768;54.148;12.174;2023-03-18T04:38:30;100728.06;;;12.33;83.19
53514;BME280;39768;54.148;12.174;2023-03-18T04:42:31;100736.78;;;12.42;81.37
53514;BME280;39768;54.148;12.174;2023-03-18T04:46:34;100723.22;;;12.54;78.67
53514;BME280;39768;54.148;12.174;2023-03-18T04:50:35;100734.31;;;12.32;77.59
53514;BME280;39768;54.148;12.174;2023-03-18T04:54:40;100728.91;;;11.94;79.87
53514;BME280;39768;54.148;12.174;2023-03-18T04:58:43;100725.75;;;12.60;74.20
53514;BME280;39768;54.148;12.174;2023-03-18T05:02:50;100721.81;;;12.36;76.12
53514;BME280;39768;54.148;12.174;2023-03-18T05:06:55;100716.06;;;12.56;72.18
53514;BME280;39768;54.148;12.174;2023-03-18T05:11:03;100720.88;;;12.77;72.05
53514;BME280;39768;54.148;12.174;2023-03-18T05:15:08;100722.25;;;12.16;74.23
53514;BME280;39768;54.148;12.174;2023-03-18T05:19:16;100731.75;;;12.68;76.24
53514;BME280;39768;54.148;12.174;2023-03-18T05:23:26;100733.28;;;11.96;84.20
53514;BME280;39768;54.148;12.174;2023-03-18T05:27:30;100739.78;;;11.28;91.98
53514;BME280;39768;54.148;12.174;2023-03-18T05:31:39;100744.41;;;11.17;94.59
53514;BME280;39768;54.148;12.174;2023-03-18T05:35:40;100746.50;;;10.98;95.26
53514;BME280;39768;54.148;12.174;2023-03-18T05:39:43;100745.06;;;11.31;92.54
53514;BME280;39768;54.148;12.174;2023-03-18T05:43:48;100745.63;;;11.50;92.25
53514;BME280;39768;54.148;12.174;2023-03-18T05:47:50;100738.38;;;11.58;90.16
53514;BME280;39768;54.148;12.174;2023-03-18T05:51:53;100735.25;;;11.87;87.38
53514;BME280;39768;54.148;12.174;2023-03-18T05:56:07;100743.03;;;11.96;89.41
53514;BME280;39768;54.148;12.174;2023-03-18T06:00:09;100744.31;;;12.21;88.48
53514;BME280;39768;54.148;12.174;2023-03-18T06:04:19;100742.88;;;12.47;86.31
53514;BME280;39768;54.148;12.174;2023-03-18T06:08:21;100751.75;;;12.04;90.14
53514;BME280;39768;54.148;12.174;2023-03-18T06:12:23;100751.72;;;12.49;87.22
53514;BME280;39768;54.148;12.174;2023-03-18T06:16:28;100753.69;;;12.39;86.46
53514;BME280;39768;54.148;12.174;2023-03-18T06:20:30;100758.06;;;12.43;88.89
53514;BME280;39768;54.148;12.174;2023-03-18T06:24:31;100763.75;;;11.79;91.98
53514;BME280;39768;54.148;12.174;2023-03-18T06:28:34;100767.63;;;12.09;91.33
53514;BME280;39768;54.148;12.174;2023-03-18T06:32:40;100767.53;;;12.13;92.18
53514;BME280;39768;54.148;12.174;2023-03-18T06:36:42;100768.91;;;12.32;91.78
53514;BME280;39768;54.148;12.174;2023-03-18T06:40:49;100772.53;;;11.84;95.91
53514;BME280;39768;54.148;12.174;2023-03-18T06:44:51;100775.56;;;12.12;93.52
53514;BME280;39768;54.148;12.174;2023-03-18T06:48:59;100773.00;;;12.06;93.13
53514;BME280;39768;54.148;12.174;2023-03-18T06:53:06;100778.75;;;12.70;89.95
53514;BME280;39768;54.148;12.174;2023-03-18T06:57:08;100783.34;;;12.64;88.98
53514;BME280;39768;54.148;12.174;2023-03-18T07:01:11;100784.06;;;12.30;92.28
53514;BME280;39768;54.148;12.174;2023-03-18T07:05:15;100786.03;;;12.62;89.93
53514;BME280;39768;54.148;12.174;2023-03-18T07:09:18;100783.09;;;12.33;92.30
53514;BME280;39768;54.148;12.174;2023-03-18T07:13:25;100797.38;;;13.11;87.24
53514;BME280;39768;54.148;12.174;2023-03-18T07:17:27;100800.56;;;13.28;85.93
53514;BME280;39768;54.148;12.174;2023-03-18T07:21:30;100813.44;;;13.07;86.99
53514;BME280;39768;54.148;12.174;2023-03-18T07:25:32;100822.31;;;13.08;89.99
53514;BME280;39768;54.148;12.174;2023-03-18T07:29:34;100806.03;;;13.22;88.54
53514;BME280;39768;54.148;12.174;2023-03-18T07:33:35;100816.75;;;13.20;86.57
53514;BME280;39768;54.148;12.174;2023-03-18T07:37:37;100835.06;;;13.35;87.64
53514;BME280;39768;54.148;12.174;2023-03-18T07:41:40;100836.03;;;13.31;88.33
53514;BME280;39768;54.148;12.174;2023-03-18T07:45:42;100822.50;;;13.00;90.13
53514;BME280;39768;54.148;12.174;2023-03-18T07:49:43;100827.47;;;13.19;93.08
53514;BME280;39768;54.148;12.174;2023-03-18T07:53:45;100834.31;;;13.29;92.16
53514;BME280;39768;54.148;12.174;2023-03-18T07:57:47;100840.84;;;13.16;94.60
53514;BME280;39768;54.148;12.174;2023-03-18T08:01:49;100835.50;;;13.14;95.64
53514;BME280;39768;54.148;12.174;2023-03-18T08:05:51;100834.22;;;13.69;92.31
53514;BME280;39768;54.148;12.174;2023-03-18T08:09:52;100835.59;;;13.85;91.18
53514;BME280;39768;54.148;12.174;2023-03-18T08:13:54;100845.88;;;13.29;93.76
53514;BME280;39768;54.148;12.174;2023-03-18T08:17:55;100845.56;;;13.79;90.34
53514;BME280;39768;54.148;12.174;2023-03-18T08:21:57;100848.88;;;13.51;94.23
53514;BME280;39768;54.148;12.174;2023-03-18T08:25:59;100838.63;;;13.34;96.11
53514;BME280;39768;54.148;12.174;2023-03-18T08:30:01;100830.84;;;13.62;92.82
53514;BME280;39768;54.148;12.174;2023-03-18T08:34:04;100831.16;;;13.84;94.64
53514;BME280;39768;54.148;12.174;2023-03-18T08:38:06;100834.03;;;14.10;90.86
53514;BME280;39768;54.148;12.174;2023-03-18T08:42:07;100830.81;;;14.63;90.17
53514;BME280;39768;54.148;12.174;2023-03-18T08:46:09;100836.28;;;14.26;91.53
53514;BME280;39768;54.148;12.174;2023-03-18T08:50:11;100834.28;;;14.34;92.86
53514;BME280;39768;54.148;12.174;2023-03-18T08:54:13;100849.59;;;14.60;87.65
53514;BME280;39768;54.148;12.174;2023-03-18T08:58:15;100849.38;;;14.69;89.55
53514;BME280;39768;54.148;12.174;2023-03-18T09:02:17;100841.16;;;15.04;87.35
53514;BME280;39768;54.148;12.174;2023-03-18T09:06:19;100847.66;;;15.25;86.43
53514;BME280;39768;54.148;12.174;2023-03-18T09:10:21;100836.75;;;15.31;84.87
53514;BME280;39768;54.148;12.174;2023-03-18T09:14:23;100842.69;;;16.46;75.79
53514;BME280;39768;54.148;12.174;2023-03-18T09:18:24;100856.19;;;16.43;77.18
53514;BME280;39768;54.148;12.174;2023-03-18T09:22:26;100866.41;;;16.32;82.38
53514;BME280;39768;54.148;12.174;2023-03-18T09:26:27;100867.91;;;15.88;83.94
53514;BME280;39768;54.148;12.174;2023-03-18T09:30:29;100874.22;;;16.38;82.22
53514;BME280;39768;54.148;12.174;2023-03-18T09:34:32;100869.63;;;16.67;81.19
53514;BME280;39768;54.148;12.174;2023-03-18T09:38:33;100870.09;;;17.24;77.88
53514;BME280;39768;54.148;12.174;2023-03-18T09:42:54;100874.50;;;16.80;80.61
53514;BME280;39768;54.148;12.174;2023-03-18T09:55:55;100882.97;;;16.43;84.73
53514;BME280;39768;54.148;12.174;2023-03-18T10:00:05;100886.22;;;17.01;80.87
53514;BME280;39768;54.148;12.174;2023-03-18T10:04:22;100875.13;;;17.34;82.42
53514;BME280;39768;54.148;12.174;2023-03-18T10:08:37;100888.06;;;17.46;77.52
53514;BME280;39768;54.148;12.174;2023-03-18T10:12:47;100877.81;;;17.34;80.52
53514;BME280;39768;54.148;12.174;2023-03-18T10:29:45;100884.38;;;19.32;69.28
53514;BME280;39768;54.148;12.174;2023-03-18T10:33:55;100891.25;;;18.21;74.76
53514;BME280;39768;54.148;12.174;2023-03-18T10:38:18;100891.13;;;18.64;75.12
53514;BME280;39768;54.148;12.174;2023-03-18T10:42:25;100897.47;;;18.63;72.11
53514;BME280;39768;54.148;12.174;2023-03-18T10:46:27;100906.81;;;19.14;70.45
53514;BME280;39768;54.148;12.174;2023-03-18T10:50:34;100915.00;;;19.11;69.29
53514;BME280;39768;54.148;12.174;2023-03-18T10:54:42;100915.09;;;18.49;73.90
53514;BME280;39768;54.148;12.174;2023-03-18T10:58:47;100915.16;;;19.08;72.63
53514;BME280;39768;54.148;12.174;2023-03-18T11:02:49;100918.50;;;19.32;70.27
53514;BME280;39768;54.148;12.174;2023-03-18T11:06:59;100923.59;;;19.76;66.16
53514;BME280;39768;54.148;12.174;2023-03-18T11:11:25;100918.16;;;20.13;65.44
53514;BME280;39768;54.148;12.174;2023-03-18T11:15:28;100912.69;;;20.15;62.33
53514;BME280;39768;54.148;12.174;2023-03-18T11:19:38;100927.16;;;20.48;60.31
53514;BME280;39768;54.148;12.174;2023-03-18T11:23:49;100915.53;;;20.81;59.45
53514;BME280;39768;54.148;12.174;2023-03-18T11:28:22;100919.78;;;19.98;62.34
53514;BME280;39768;54.148;12.174;2023-03-18T11:32:30;100915.13;;;19.66;67.50
53514;BME280;39768;54.148;12.174;2023-03-18T11:36:32;100915.72;;;19.73;66.38
53514;BME280;39768;54.148;12.174;2023-03-18T11:40:38;100910.16;;;19.38;66.79
53514;BME280;39768;54.148;12.174;2023-03-18T11:44:40;100916.34;;;19.78;65.61
53514;BME280;39768;54.148;12.174;2023-03-18T11:48:42;100903.75;;;20.31;61.67
53514;BME280;39768;54.148;12.174;2023-03-18T11:52:59;100907.44;;;19.76;64.58
53514;BME280;39768;54.148;12.174;2023-03-18T11:57:19;100927.25;;;19.37;66.59
53514;BME280;39768;54.148;12.174;2023-03-18T12:06:03;100925.88;;;19.66;66.42
53514;BME280;39768;54.148;12.174;2023-03-18T12:10:16;100930.06;;;19.54;69.06
53514;BME280;39768;54.148;12.174;2023-03-18T12:14:38;100937.31;;;19.71;69.46
53514;BME280;39768;54.148;12.174;2023-03-18T12:23:38;100939.19;;;18.92;74.49
53514;BME280;39768;54.148;12.174;2023-03-18T12:28:13;100951.09;;;18.87;75.85
53514;BME280;39768;54.148;12.174;2023-03-18T12:32:24;100955.09;;;18.36;78.31
53514;BME280;39768;54.148;12.174;2023-03-18T12:36:55;100967.41;;;18.20;80.93
53514;BME280;39768;54.148;12.174;2023-03-18T12:45:35;100969.91;;;18.87;78.98
53514;BME280;39768;54.148;12.174;2023-03-18T12:49:59;100968.19;;;18.65;80.54
53514;BME280;39768;54.148;12.174;2023-03-18T12:54:14;100970.13;;;18.40;82.85
53514;BME280;39768;54.148;12.174;2023-03-18T12:58:22;100974.91;;;18.33;81.93
53514;BME280;39768;54.148;12.174;2023-03-18T13:02:37;100972.63;;;18.45;80.47
53514;BME280;39768;54.148;12.174;2023-03-18T13:07:02;100984.59;;;18.16;82.08
53514;BME280;39768;54.148;12.174;2023-03-18T13:28:56;100991.25;;;18.27;80.12
53514;BME280;39768;54.148;12.174;2023-03-18T14:02:42;100998.13;;;19.17;68.40
53514;BME280;39768;54.148;12.174;2023-03-18T14:06:55;100991.53;;;19.63;66.73
53514;BME280;39768;54.148;12.174;2023-03-18T14:19:38;101007.28;;;20.46;60.93
53514;BME280;39768;54.148;12.174;2023-03-18T14:23:43;101001.31;;;20.39;60.74
53514;BME280;39768;54.148;12.174;2023-03-18T14:27:57;100999.38;;;20.60;60.63
53514;BME280;39768;54.148;12.174;2023-03-18T14:32:01;100999.44;;;20.23;61.94
53514;BME280;39768;54.148;12.174;2023-03-18T14:36:08;101007.28;;;19.73;61.58
53514;BME280;39768;54.148;12.174;2023-03-18T14:40:14;101005.97;;;19.81;64.04
53514;BME280;39768;54.148;12.174;2023-03-18T14:44:42;101017.22;;;19.31;69.06
53514;BME280;39768;54.148;12.174;2023-03-18T14:48:52;101010.91;;;19.32;70.84
53514;BME280;39768;54.148;12.174;2023-03-18T14:53:00;101017.84;;;19.38;70.41
53514;BME280;39768;54.148;12.174;2023-03-18T14:57:03;101025.91;;;19.58;66.80
53514;BME280;39768;54.148;12.174;2023-03-18T15:01:08;101025.47;;;18.88;69.58
53514;BME280;39768;54.148;12.174;2023-03-18T15:05:17;101021.31;;;18.81;68.07
53514;BME280;39768;54.148;12.174;2023-03-18T15:09:27;101018.63;;;18.81;66.63
53514;BME280;39768;54.148;12.174;2023-03-18T15:13:30;101017.88;;;18.97;64.24
53514;BME280;39768;54.148;12.174;2023-03-18T15:17:32;101031.66;;;19.10;63.67
53514;BME280;39768;54.148;12.174;2023-03-18T15:21:35;101030.06;;;19.65;62.15
53514;BME280;39768;54.148;12.174;2023-03-18T15:25:41;101030.41;;;19.77;63.42
53514;BME280;39768;54.148;12.174;2023-03-18T15:30:04;101027.13;;;20.26;61.51
53514;BME280;39768;54.148;12.174;2023-03-18T15:34:16;101038.94;;;19.47;62.47
53514;BME280;39768;54.148;12.174;2023-03-18T15:38:19;101029.19;;;19.65;61.64
53514;BME280;39768;54.148;12.174;2023-03-18T15:42:22;101042.06;;;19.38;62.25
53514;BME280;39768;54.148;12.174;2023-03-18T15:46:28;101041.84;;;19.63;61.41
53514;BME280;39768;54.148;12.174;2023-03-18T15:50:31;101043.34;;;19.29;59.22
53514;BME280;39768;54.148;12.174;2023-03-18T15:54:38;101035.81;;;19.77;59.65
53514;BME280;39768;54.148;12.174;2023-03-18T15:58:41;101041.31;;;19.34;61.64
53514;BME280;39768;54.148;12.174;2023-03-18T16:02:47;101038.50;;;19.17;61.10
53514;BME280;39768;54.148;12.174;2023-03-18T16:06:50;101051.50;;;19.08;59.99
53514;BME280;39768;54.148;12.174;2023-03-18T16:10:58;101050.22;;;19.36;59.13
53514;BME280;39768;54.148;12.174;2023-03-18T16:15:02;101061.50;;;19.45;59.15
53514;BME280;39768;54.148;12.174;2023-03-18T16:19:13;101061.22;;;19.71;57.51
53514;BME280;39768;54.148;12.174;2023-03-18T16:23:16;101067.72;;;19.26;59.80
53514;BME280;39768;54.148;12.174;2023-03-18T16:27:35;101072.25;;;19.45;58.59
53514;BME280;39768;54.148;12.174;2023-03-18T16:31:37;101084.53;;;19.31;58.80
53514;BME280;39768;54.148;12.174;2023-03-18T16:35:39;101083.56;;;19.54;56.99
53514;BME280;39768;54.148;12.174;2023-03-18T16:39:41;101086.50;;;19.28;58.03
53514;BME280;39768;54.148;12.174;2023-03-18T16:43:52;101089.41;;;19.44;57.50
53514;BME280;39768;54.148;12.174;2023-03-18T16:48:01;101080.03;;;19.32;58.00
53514;BME280;39768;54.148;12.174;2023-03-18T16:52:05;101080.78;;;18.95;60.74
53514;BME280;39768;54.148;12.174;2023-03-18T16:56:18;101088.44;;;19.04;59.57
53514;BME280;39768;54.148;12.174;2023-03-18T17:00:29;101097.78;;;18.95;57.77
53514;BME280;39768;54.148;12.174;2023-03-18T17:04:45;101099.03;;;18.66;61.71
53514;BME280;39768;54.148;12.174;2023-03-18T17:08:50;101099.66;;;18.50;61.28
53514;BME280;39768;54.148;12.174;2023-03-18T17:13:02;101102.81;;;18.39;61.25
53514;BME280;39768;54.148;12.174;2023-03-18T17:17:19;101113.69;;;18.13;64.92
53514;BME280;39768;54.148;12.174;2023-03-18T17:21:26;101112.06;;;17.85;66.56
53514;BME280;39768;54.148;12.174;2023-03-18T17:25:31;101118.72;;;17.75;66.55
53514;BME280;39768;54.148;12.174;2023-03-18T17:29:33;101117.59;;;17.56;70.36
53514;BME280;39768;54.148;12.174;2023-03-18T17:33:36;101130.16;;;17.31;70.79
53514;BME280;39768;54.148;12.174;2023-03-18T17:37:50;101125.81;;;17.02;73.37
53514;BME280;39768;54.148;12.174;2023-03-18T17:41:58;101133.19;;;16.95;73.09
53514;BME280;39768;54.148;12.174;2023-03-18T17:46:17;101144.03;;;16.64;77.36
53514;BME280;39768;54.148;12.174;2023-03-18T17:50:37;101140.19;;;16.45;78.87
53514;BME280;39768;54.148;12.174;2023-03-18T17:55:14;101147.22;;;16.47;79.61
53514;BME280;39768;54.148;12.174;2023-03-18T17:59:18;101147.66;;;16.34;79.91
53514;BME280;39768;54.148;12.174;2023-03-18T18:03:25;101150.06;;;16.43;79.57
53514;BME280;39768;54.148;12.174;2023-03-18T18:07:30;101144.75;;;16.41;76.46
53514;BME280;39768;54.148;12.174;2023-03-18T18:12:00;101153.22;;;15.67;85.11
53514;BME280;39768;54.148;12.174;2023-03-18T18:16:22;101155.00;;;15.33;83.91
53514;BME280;39768;54.148;12.174;2023-03-18T18:20:39;101158.50;;;15.36;83.45
53514;BME280;39768;54.148;12.174;2023-03-18T18:25:01;101153.59;;;14.84;87.00
53514;BME280;39768;54.148;12.174;2023-03-18T18:29:19;101156.16;;;15.24;84.51
53514;BME280;39768;54.148;12.174;2023-03-18T18:33:44;101145.50;;;15.23;82.95
53514;BME280;39768;54.148;12.174;2023-03-18T18:38:08;101143.25;;;15.06;85.09
53514;BME280;39768;54.148;12.174;2023-03-18T18:42:34;101152.75;;;15.17;84.80
53514;BME280;39768;54.148;12.174;2023-03-18T18:46:35;101157.25;;;15.15;83.79
53514;BME280;39768;54.148;12.174;2023-03-18T18:50:37;101158.75;;;14.92;87.50
53514;BME280;39768;54.148;12.174;2023-03-18T18:54:40;101160.22;;;13.88;93.46
53514;BME280;39768;54.148;12.174;2023-03-18T18:58:42;101162.97;;;13.37;97.15
53514;BME280;39768;54.148;12.174;2023-03-18T19:02:43;101165.13;;;14.09;93.03
53514;BME280;39768;54.148;12.174;2023-03-18T19:06:47;101161.72;;;14.42;89.05
53514;BME280;39768;54.148;12.174;2023-03-18T19:10:54;101161.66;;;14.45;89.52
53514;BME280;39768;54.148;12.174;2023-03-18T19:14:57;101168.75;;;14.46;89.42
53514;BME280;39768;54.148;12.174;2023-03-18T19:18:59;101157.53;;;14.29;88.47
53514;BME280;39768;54.148;12.174;2023-03-18T19:23:00;101160.13;;;13.48;97.02
53514;BME280;39768;54.148;12.174;2023-03-18T19:27:08;101163.19;;;13.26;100.00
53514;BME280;39768;54.148;12.174;2023-03-18T19:31:17;101151.84;;;14.06;93.56
53514;BME280;39768;54.148;12.174;2023-03-18T19:35:19;101160.81;;;14.02;93.08
53514;BME280;39768;54.148;12.174;2023-03-18T19:39:21;101165.63;;;14.25;90.58
53514;BME280;39768;54.148;12.174;2023-03-18T19:43:23;101173.38;;;13.52;93.99
53514;BME280;39768;54.148;12.174;2023-03-18T19:47:27;101178.53;;;13.61;94.15
53514;BME280;39768;54.148;12.174;2023-03-18T19:51:29;101188.16;;;13.70;96.31
53514;BME280;39768;54.148;12.174;2023-03-18T19:55:31;101183.66;;;13.72;97.01
53514;BME280;39768;54.148;12.174;2023-03-18T19:59:33;101183.28;;;13.92;93.83
53514;BME280;39768;54.148;12.174;2023-03-18T20:03:40;101187.16;;;13.75;93.39
53514;BME280;39768;54.148;12.174;2023-03-18T20:07:42;101194.19;;;13.80;92.34
53514;BME280;39768;54.148;12.174;2023-03-18T20:11:44;101193.75;;;13.56;92.99
53514;BME280;39768;54.148;12.174;2023-03-18T20:15:47;101196.38;;;13.59;93.50
53514;BME280;39768;54.148;12.174;2023-03-18T20:19:49;101207.84;;;13.64;92.46
53514;BME280;39768;54.148;12.174;2023-03-18T20:23:52;101208.13;;;13.49;92.88
53514;BME280;39768;54.148;12.174;2023-03-18T20:28:23;101202.00;;;13.43;93.32
53514;BME280;39768;54.148;12.174;2023-03-18T20:32:28;101200.63;;;13.20;94.95
53514;BME280;39768;54.148;12.174;2023-03-18T20:37:00;101204.59;;;13.47;94.99
53514;BME280;39768;54.148;12.174;2023-03-18T20:41:35;101214.63;;;13.33;95.55
53514;BME280;39768;54.148;12.174;2023-03-18T20:45:55;101220.66;;;12.89;97.52
53514;BME280;39768;54.148;12.174;2023-03-18T20:49:57;101215.81;;;13.17;95.00
53514;BME280;39768;54.148;12.174;2023-03-18T20:54:23;101226.47;;;13.17;93.06
53514;BME280;39768;54.148;12.174;2023-03-18T20:58:43;101234.47;;;13.15;92.97
53514;BME280;39768;54.148;12.174;2023-03-18T21:02:56;101231.75;;;13.20;91.33
53514;BME280;39768;54.148;12.174;2023-03-18T21:06:59;101229.34;;;13.01;91.66
53514;BME280;39768;54.148;12.174;2023-03-18T21:11:18;101227.69;;;12.93;91.72
53514;BME280;39768;54.148;12.174;2023-03-18T21:15:23;101225.03;;;12.93;91.36
53514;BME280;39768;54.148;12.174;2023-03-18T21:19:49;101224.69;;;12.57;92.71
53514;BME280;39768;54.148;12.174;2023-03-18T21:23:53;101219.72;;;12.31;99.50
53514;BME280;39768;54.148;12.174;2023-03-18T21:27:59;101231.66;;;12.00;100.00
53514;BME280;39768;54.148;12.174;2023-03-18T21:32:03;101231.78;;;12.57;100.00
53514;BME280;39768;54.148;12.174;2023-03-18T21:36:08;101228.75;;;12.81;97.52
53514;BME280;39768;54.148;12.174;2023-03-18T21:40:14;101228.53;;;12.33;99.24
53514;BME280;39768;54.148;12.174;2023-03-18T21:44:18;101232.38;;;12.77;100.00
53514;BME280;39768;54.148;12.174;2023-03-18T21:48:21;101235.69;;;12.93;97.68
53514;BME280;39768;54.148;12.174;2023-03-18T21:52:28;101240.31;;;12.82;98.69
53514;BME280;39768;54.148;12.174;2023-03-18T21:57:24;101238.75;;;12.65;100.00
53514;BME280;39768;54.148;12.174;2023-03-18T22:02:04;101228.13;;;12.64;100.00
53514;BME280;39768;54.148;12.174;2023-03-18T22:06:34;101238.91;;;12.56;100.00
53514;BME280;39768;54.148;12.174;2023-03-18T22:10:35;101242.59;;;12.46;100.00
53514;BME280;39768;54.148;12.174;2023-03-18T22:14:37;101243.81;;;12.19;97.40
53514;BME280;39768;54.148;12.174;2023-03-18T22:18:42;101242.31;;;11.97;96.30
53514;BME280;39768;54.148;12.174;2023-03-18T22:22:45;101243.19;;;11.99;94.87
53514;BME280;39768;54.148;12.174;2023-03-18T22:26:47;101247.03;;;11.69;95.08
53514;BME280;39768;54.148;12.174;2023-03-18T22:30:52;101244.47;;;11.58;95.08
53514;BME280;39768;54.148;12.174;2023-03-18T22:39:15;101231.25;;;10.25;100.00
53514;BME280;39768;54.148;12.174;2023-03-18T22:47:26;101219.13;;;9.29;100.00
53514;BME280;39768;54.148;12.174;2023-03-18T22:51:28;101227.00;;;9.71;100.00
53514;BME280;39768;54.148;12.174;2023-03-18T22:55:36;101220.81;;;9.77;100.00
53514;BME280;39768;54.148;12.174;2023-03-18T22:59:49;101216.50;;;9.30;100.00